Terminal Aerodrome Forecast
Issued by NWS

Home | Current Version | Previous Version | Text Only | Print | Product List | Glossary Off
Versions: 1 2 3 4 5 6 7 8 9 10 11 12 13 14 15 16 17 18 19 20 21 22 23 24 25 26 27

681
FTUS43 KBIS 271354 AAA
TAFJMS
TAF AMD
KJMS 271354Z 2714/2812 27008KT P6SM FEW250
     FM271600 27012G20KT P6SM FEW090
     FM272300 29016G24KT P6SM VCTS BKN100CB
     FM280200 31010KT P6SM VCSH BKN100
     FM280400 30006KT P6SM SCT120=

USA.gov is the U.S. government's official web portal to all federal, state and local government web resources and services.